Axtell, Utah
Current Conditions -  °F | °C
As of 6:35 AM on Saturday 25 Oct 2014 (Local Time) from KDTA Reporting Station
Clear Clear  
Wind Chill: 55°   Ceiling: Unl
Heat Index: 55°   Visibility: 10mi
Dew Point: 29°   Wind: 9mph
Humidity: 38%   Direction: 170°S
Pressure: 30.14"   Gusts: NA
Location:  39.06°N, 111.82°W
Report Text: KDTA 251235Z AUTO 17008KT 10SM CLR 13/M01 A3014 RMK AO1 T01271014
Loading
Personal Weather Stations






























Interactive Weather Map New forecast layout! Learn more

10-Day Weather Forecast

Advertisements
Track Severe Weather on mobile